sensor_id;sensor_type;location;lat;lon;timestamp;pressure;altitude;pressure_sealevel;temperature;humidity
54816;BME280;40715;55.752;37.884;2022-07-23T00:00:29;99001.53;;;20.82;60.46
54816;BME280;40715;55.752;37.884;2022-07-23T00:03:03;99002.94;;;20.75;60.60
54816;BME280;40715;55.752;37.884;2022-07-23T00:05:30;99016.75;;;20.81;60.75
54816;BME280;40715;55.752;37.884;2022-07-23T00:07:57;99017.69;;;20.80;60.93
54816;BME280;40715;55.752;37.884;2022-07-23T00:10:24;99022.31;;;20.78;61.19
54816;BME280;40715;55.752;37.884;2022-07-23T00:12:51;99015.38;;;20.76;61.10
54816;BME280;40715;55.752;37.884;2022-07-23T00:15:18;99011.31;;;20.70;61.24
54816;BME280;40715;55.752;37.884;2022-07-23T00:17:46;99014.00;;;20.70;61.34
54816;BME280;40715;55.752;37.884;2022-07-23T00:20:13;99018.41;;;20.71;61.54
54816;BME280;40715;55.752;37.884;2022-07-23T00:22:52;99011.00;;;20.62;61.73
54816;BME280;40715;55.752;37.884;2022-07-23T00:25:21;99018.72;;;20.91;60.70
54816;BME280;40715;55.752;37.884;2022-07-23T00:27:55;99023.97;;;20.92;60.64
54816;BME280;40715;55.752;37.884;2022-07-23T00:30:32;99020.44;;;20.92;60.68
54816;BME280;40715;55.752;37.884;2022-07-23T00:33:02;99016.03;;;20.91;60.73
54816;BME280;40715;55.752;37.884;2022-07-23T00:35:32;99017.03;;;20.90;60.85
54816;BME280;40715;55.752;37.884;2022-07-23T00:38:01;99015.44;;;20.87;61.04
54816;BME280;40715;55.752;37.884;2022-07-23T00:40:29;99019.06;;;20.86;61.02
54816;BME280;40715;55.752;37.884;2022-07-23T00:42:56;99024.53;;;20.84;61.12
54816;BME280;40715;55.752;37.884;2022-07-23T00:45:23;99020.16;;;20.83;61.37
54816;BME280;40715;55.752;37.884;2022-07-23T00:47:50;99020.16;;;20.83;61.40
54816;BME280;40715;55.752;37.884;2022-07-23T00:50:18;99027.22;;;20.84;61.51
54816;BME280;40715;55.752;37.884;2022-07-23T00:52:45;99014.78;;;20.83;61.60
54816;BME280;40715;55.752;37.884;2022-07-23T00:55:13;99017.59;;;20.82;61.39
54816;BME280;40715;55.752;37.884;2022-07-23T00:57:41;98992.03;;;20.65;61.88
54816;BME280;40715;55.752;37.884;2022-07-23T01:00:12;99011.63;;;20.78;62.02
54816;BME280;40715;55.752;37.884;2022-07-23T01:02:40;99015.13;;;20.79;62.07
54816;BME280;40715;55.752;37.884;2022-07-23T01:05:09;99014.41;;;20.77;62.19
54816;BME280;40715;55.752;37.884;2022-07-23T01:07:36;99011.75;;;20.77;62.14
54816;BME280;40715;55.752;37.884;2022-07-23T01:10:04;99023.41;;;20.76;62.32
54816;BME280;40715;55.752;37.884;2022-07-23T01:12:51;99012.81;;;20.74;62.37
54816;BME280;40715;55.752;37.884;2022-07-23T01:15:18;99024.13;;;20.78;62.23
54816;BME280;40715;55.752;37.884;2022-07-23T01:17:45;99029.47;;;20.78;62.55
54816;BME280;40715;55.752;37.884;2022-07-23T01:20:12;99021.56;;;20.76;62.59
54816;BME280;40715;55.752;37.884;2022-07-23T01:22:39;99015.38;;;20.76;62.48
54816;BME280;40715;55.752;37.884;2022-07-23T01:25:06;99025.00;;;20.78;62.65
54816;BME280;40715;55.752;37.884;2022-07-23T01:27:33;99022.22;;;20.80;62.76
54816;BME280;40715;55.752;37.884;2022-07-23T01:30:01;99022.81;;;20.83;62.83
54816;BME280;40715;55.752;37.884;2022-07-23T01:32:30;99018.94;;;20.88;62.75
54816;BME280;40715;55.752;37.884;2022-07-23T01:34:57;99023.88;;;20.94;62.86
54816;BME280;40715;55.752;37.884;2022-07-23T01:37:24;99021.34;;;21.03;62.73
54816;BME280;40715;55.752;37.884;2022-07-23T01:39:51;98984.16;;;20.88;62.64
54816;BME280;40715;55.752;37.884;2022-07-23T01:42:18;99021.38;;;21.15;62.58
54816;BME280;40715;55.752;37.884;2022-07-23T01:44:45;99019.97;;;21.22;62.47
54816;BME280;40715;55.752;37.884;2022-07-23T01:47:12;99014.97;;;21.29;62.44
54816;BME280;40715;55.752;37.884;2022-07-23T01:49:39;99011.84;;;21.35;62.29
54816;BME280;40715;55.752;37.884;2022-07-23T01:52:06;99023.56;;;21.45;61.89
54816;BME280;40715;55.752;37.884;2022-07-23T01:54:39;99023.72;;;21.55;61.98
54816;BME280;40715;55.752;37.884;2022-07-23T01:57:06;99017.50;;;21.66;61.69
54816;BME280;40715;55.752;37.884;2022-07-23T01:59:34;99016.06;;;21.73;61.61
54816;BME280;40715;55.752;37.884;2022-07-23T02:02:01;99024.00;;;21.86;61.23
54816;BME280;40715;55.752;37.884;2022-07-23T02:04:30;99022.06;;;21.99;61.09
54816;BME280;40715;55.752;37.884;2022-07-23T02:06:57;99016.31;;;22.15;60.70
54816;BME280;40715;55.752;37.884;2022-07-23T02:09:24;99016.06;;;22.30;60.37
54816;BME280;40715;55.752;37.884;2022-07-23T02:11:51;99021.19;;;22.44;60.17
54816;BME280;40715;55.752;37.884;2022-07-23T02:14:18;99019.81;;;22.61;59.74
54816;BME280;40715;55.752;37.884;2022-07-23T02:16:45;99015.25;;;22.73;59.44
54816;BME280;40715;55.752;37.884;2022-07-23T02:19:12;99023.63;;;22.91;58.77
54816;BME280;40715;55.752;37.884;2022-07-23T02:21:39;99005.06;;;22.99;58.69
54816;BME280;40715;55.752;37.884;2022-07-23T02:24:06;99022.41;;;23.27;58.07
54816;BME280;40715;55.752;37.884;2022-07-23T02:26:33;98989.16;;;23.29;57.74
54816;BME280;40715;55.752;37.884;2022-07-23T02:29:02;99010.88;;;23.58;56.98
54816;BME280;40715;55.752;37.884;2022-07-23T02:31:30;99015.25;;;23.80;56.70
54816;BME280;40715;55.752;37.884;2022-07-23T02:33:57;99009.13;;;23.99;56.08
54816;BME280;40715;55.752;37.884;2022-07-23T02:36:24;99008.47;;;24.17;55.51
54816;BME280;40715;55.752;37.884;2022-07-23T02:38:51;99020.16;;;24.37;55.16
54816;BME280;40715;55.752;37.884;2022-07-23T02:41:18;99021.19;;;24.55;54.52
54816;BME280;40715;55.752;37.884;2022-07-23T02:43:45;99023.81;;;24.76;53.71
54816;BME280;40715;55.752;37.884;2022-07-23T02:46:12;99004.69;;;24.89;53.28
54816;BME280;40715;55.752;37.884;2022-07-23T02:48:39;99012.78;;;25.09;52.73
54816;BME280;40715;55.752;37.884;2022-07-23T02:51:06;99029.09;;;25.27;52.34
54816;BME280;40715;55.752;37.884;2022-07-23T02:53:36;99008.78;;;25.42;51.60
54816;BME280;40715;55.752;37.884;2022-07-23T02:56:03;99017.31;;;25.57;51.19
54816;BME280;40715;55.752;37.884;2022-07-23T02:58:30;99017.41;;;25.75;50.69
54816;BME280;40715;55.752;37.884;2022-07-23T03:01:01;99023.84;;;25.92;50.45
54816;BME280;40715;55.752;37.884;2022-07-23T03:03:28;99019.47;;;26.01;49.94
54816;BME280;40715;55.752;37.884;2022-07-23T03:05:56;99025.66;;;26.21;49.49
54816;BME280;40715;55.752;37.884;2022-07-23T03:08:22;99036.63;;;26.38;48.74
54816;BME280;40715;55.752;37.884;2022-07-23T03:10:49;99031.28;;;26.56;48.53
54816;BME280;40715;55.752;37.884;2022-07-23T03:13:16;99038.59;;;26.73;47.47
54816;BME280;40715;55.752;37.884;2022-07-23T03:15:43;99040.47;;;26.91;47.38
54816;BME280;40715;55.752;37.884;2022-07-23T03:18:10;99040.06;;;27.03;47.05
54816;BME280;40715;55.752;37.884;2022-07-23T03:20:38;99028.03;;;27.16;46.44
54816;BME280;40715;55.752;37.884;2022-07-23T03:23:05;99032.47;;;27.35;45.78
54816;BME280;40715;55.752;37.884;2022-07-23T03:25:32;99047.50;;;27.55;45.31
54816;BME280;40715;55.752;37.884;2022-07-23T03:27:59;99039.84;;;27.77;44.88
54816;BME280;40715;55.752;37.884;2022-07-23T03:30:26;99045.31;;;28.03;44.20
54816;BME280;40715;55.752;37.884;2022-07-23T03:32:53;99052.06;;;28.34;43.30
54816;BME280;40715;55.752;37.884;2022-07-23T03:35:20;99048.97;;;28.63;42.92
54816;BME280;40715;55.752;37.884;2022-07-23T03:37:47;99037.69;;;28.92;42.12
54816;BME280;40715;55.752;37.884;2022-07-23T03:40:14;99041.66;;;29.31;41.55
54816;BME280;40715;55.752;37.884;2022-07-23T03:42:41;99047.06;;;29.64;40.63
54816;BME280;40715;55.752;37.884;2022-07-23T03:45:09;99056.53;;;30.01;40.03
54816;BME280;40715;55.752;37.884;2022-07-23T03:47:36;99053.88;;;30.33;39.36
54816;BME280;40715;55.752;37.884;2022-07-23T03:50:04;99047.66;;;30.63;38.40
54816;BME280;40715;55.752;37.884;2022-07-23T03:52:31;99067.19;;;30.98;37.77
54816;BME280;40715;55.752;37.884;2022-07-23T03:54:58;99058.91;;;31.38;37.06
54816;BME280;40715;55.752;37.884;2022-07-23T03:57:25;99058.78;;;31.78;36.20
54816;BME280;40715;55.752;37.884;2022-07-23T03:59:52;99055.44;;;32.21;35.56
54816;BME280;40715;55.752;37.884;2022-07-23T04:02:19;99046.97;;;32.75;34.37
54816;BME280;40715;55.752;37.884;2022-07-23T04:04:47;99052.19;;;33.35;33.26
54816;BME280;40715;55.752;37.884;2022-07-23T04:07:14;99054.50;;;34.10;31.95
54816;BME280;40715;55.752;37.884;2022-07-23T04:09:41;99058.28;;;34.92;30.84
54816;BME280;40715;55.752;37.884;2022-07-23T04:12:11;99062.19;;;36.05;29.50
54816;BME280;40715;55.752;37.884;2022-07-23T04:14:39;99047.22;;;37.11;28.16
54816;BME280;40715;55.752;37.884;2022-07-23T04:17:06;99069.97;;;38.20;27.15
54816;BME280;40715;55.752;37.884;2022-07-23T04:19:33;99041.59;;;38.93;25.72
54816;BME280;40715;55.752;37.884;2022-07-23T04:22:07;99075.75;;;39.89;24.58
54816;BME280;40715;55.752;37.884;2022-07-23T04:24:34;99079.19;;;40.43;23.74
54816;BME280;40715;55.752;37.884;2022-07-23T04:27:01;99078.06;;;41.09;22.79
54816;BME280;40715;55.752;37.884;2022-07-23T04:29:28;99068.94;;;41.71;21.84
54816;BME280;40715;55.752;37.884;2022-07-23T04:31:55;99072.13;;;42.36;21.54
54816;BME280;40715;55.752;37.884;2022-07-23T04:34:23;99074.84;;;42.75;20.79
54816;BME280;40715;55.752;37.884;2022-07-23T04:36:50;99073.78;;;43.31;20.37
54816;BME280;40715;55.752;37.884;2022-07-23T04:39:17;99087.00;;;43.83;19.82
54816;BME280;40715;55.752;37.884;2022-07-23T04:41:45;99075.31;;;44.24;19.01
54816;BME280;40715;55.752;37.884;2022-07-23T04:44:12;99076.72;;;44.79;18.26
54816;BME280;40715;55.752;37.884;2022-07-23T04:46:39;99079.91;;;45.40;17.75
54816;BME280;40715;55.752;37.884;2022-07-23T04:49:07;99067.13;;;45.90;17.29
54816;BME280;40715;55.752;37.884;2022-07-23T04:51:35;99069.25;;;46.34;16.59
54816;BME280;40715;55.752;37.884;2022-07-23T04:54:05;99080.50;;;46.79;16.52
54816;BME280;40715;55.752;37.884;2022-07-23T04:56:32;99068.81;;;47.22;15.86
54816;BME280;40715;55.752;37.884;2022-07-23T04:58:59;99062.88;;;47.63;15.18
54816;BME280;40715;55.752;37.884;2022-07-23T05:01:26;99070.00;;;48.09;15.27
54816;BME280;40715;55.752;37.884;2022-07-23T05:03:53;99070.69;;;48.49;14.60
54816;BME280;40715;55.752;37.884;2022-07-23T05:06:20;99074.19;;;48.79;14.50
54816;BME280;40715;55.752;37.884;2022-07-23T05:08:47;99074.34;;;49.07;14.21
54816;BME280;40715;55.752;37.884;2022-07-23T05:11:14;99062.84;;;49.47;13.49
54816;BME280;40715;55.752;37.884;2022-07-23T05:13:41;99064.41;;;49.86;13.49
54816;BME280;40715;55.752;37.884;2022-07-23T05:16:08;99053.34;;;50.22;13.13
54816;BME280;40715;55.752;37.884;2022-07-23T05:18:35;99062.56;;;50.79;12.65
54816;BME280;40715;55.752;37.884;2022-07-23T05:21:01;99053.91;;;51.03;12.53
54816;BME280;40715;55.752;37.884;2022-07-23T05:23:28;99058.09;;;51.37;12.16
54816;BME280;40715;55.752;37.884;2022-07-23T05:25:55;99054.19;;;51.69;12.03
54816;BME280;40715;55.752;37.884;2022-07-23T05:28:22;99060.69;;;52.10;11.77
54816;BME280;40715;55.752;37.884;2022-07-23T05:30:49;99060.97;;;52.40;11.44
54816;BME280;40715;55.752;37.884;2022-07-23T05:33:18;99071.97;;;52.76;11.00
54816;BME280;40715;55.752;37.884;2022-07-23T05:35:46;99069.34;;;53.06;10.70
54816;BME280;40715;55.752;37.884;2022-07-23T05:38:13;99078.78;;;53.45;10.41
54816;BME280;40715;55.752;37.884;2022-07-23T05:40:40;99064.13;;;53.70;10.43
54816;BME280;40715;55.752;37.884;2022-07-23T05:43:07;99071.13;;;54.02;9.81
54816;BME280;40715;55.752;37.884;2022-07-23T05:45:34;99066.56;;;54.27;9.75
54816;BME280;40715;55.752;37.884;2022-07-23T05:48:01;99079.00;;;54.56;9.22
54816;BME280;40715;55.752;37.884;2022-07-23T05:50:28;99062.91;;;54.87;9.58
54816;BME280;40715;55.752;37.884;2022-07-23T05:52:55;99062.84;;;54.95;9.49
54816;BME280;40715;55.752;37.884;2022-07-23T05:55:22;99073.53;;;55.23;9.08
54816;BME280;40715;55.752;37.884;2022-07-23T05:57:49;99071.75;;;55.40;9.20
54816;BME280;40715;55.752;37.884;2022-07-23T06:00:16;99069.97;;;55.68;8.43
54816;BME280;40715;55.752;37.884;2022-07-23T06:02:43;99068.56;;;55.87;8.30
54816;BME280;40715;55.752;37.884;2022-07-23T06:05:10;99067.47;;;56.00;8.79
54816;BME280;40715;55.752;37.884;2022-07-23T06:07:37;99070.16;;;56.09;8.36
54816;BME280;40715;55.752;37.884;2022-07-23T06:10:04;99060.75;;;56.30;8.19
54816;BME280;40715;55.752;37.884;2022-07-23T06:12:31;99072.63;;;56.48;8.02
54816;BME280;40715;55.752;37.884;2022-07-23T06:14:59;99076.56;;;56.84;8.11
54816;BME280;40715;55.752;37.884;2022-07-23T06:17:26;99065.91;;;57.34;7.62
54816;BME280;40715;55.752;37.884;2022-07-23T06:19:57;99068.06;;;57.53;7.43
54816;BME280;40715;55.752;37.884;2022-07-23T06:22:41;99063.09;;;57.50;7.88
54816;BME280;40715;55.752;37.884;2022-07-23T06:25:08;99063.44;;;57.93;7.13
54816;BME280;40715;55.752;37.884;2022-07-23T06:27:38;99049.81;;;58.30;7.24
54816;BME280;40715;55.752;37.884;2022-07-23T06:30:05;99072.88;;;58.64;6.82
54816;BME280;40715;55.752;37.884;2022-07-23T06:32:34;99056.91;;;58.95;6.66
54816;BME280;40715;55.752;37.884;2022-07-23T06:35:01;99040.19;;;59.10;6.10
54816;BME280;40715;55.752;37.884;2022-07-23T06:37:29;99060.56;;;59.35;6.91
54816;BME280;40715;55.752;37.884;2022-07-23T06:39:56;99051.56;;;59.52;6.37
54816;BME280;40715;55.752;37.884;2022-07-23T06:42:23;99065.13;;;60.05;6.11
54816;BME280;40715;55.752;37.884;2022-07-23T06:44:50;99051.97;;;60.51;6.29
54816;BME280;40715;55.752;37.884;2022-07-23T06:47:17;99052.03;;;60.85;5.43
54816;BME280;40715;55.752;37.884;2022-07-23T06:49:44;99059.66;;;60.77;5.88
54816;BME280;40715;55.752;37.884;2022-07-23T06:52:11;99047.28;;;60.62;6.05
54816;BME280;40715;55.752;37.884;2022-07-23T06:54:38;99054.19;;;60.91;5.80
54816;BME280;40715;55.752;37.884;2022-07-23T06:57:05;99049.41;;;61.37;5.36
54816;BME280;40715;55.752;37.884;2022-07-23T06:59:32;99054.28;;;61.77;5.33
54816;BME280;40715;55.752;37.884;2022-07-23T07:01:59;99059.13;;;62.22;4.98
54816;BME280;40715;55.752;37.884;2022-07-23T07:04:26;99056.59;;;62.72;4.76
54816;BME280;40715;55.752;37.884;2022-07-23T07:06:53;99058.00;;;63.18;4.72
54816;BME280;40715;55.752;37.884;2022-07-23T07:09:20;99065.44;;;63.66;4.56
54816;BME280;40715;55.752;37.884;2022-07-23T07:11:47;99052.75;;;64.14;4.44
54816;BME280;40715;55.752;37.884;2022-07-23T07:14:14;99058.75;;;64.77;3.60
54816;BME280;40715;55.752;37.884;2022-07-23T07:16:41;99061.13;;;65.60;3.80
54816;BME280;40715;55.752;37.884;2022-07-23T07:19:08;99062.09;;;66.72;2.73
54816;BME280;40715;55.752;37.884;2022-07-23T07:21:36;99050.66;;;67.30;2.57
54816;BME280;40715;55.752;37.884;2022-07-23T07:24:03;99051.00;;;67.59;2.20
54816;BME280;40715;55.752;37.884;2022-07-23T07:26:30;99032.22;;;67.75;2.28
54816;BME280;40715;55.752;37.884;2022-07-23T07:28:57;99049.75;;;68.28;1.99
54816;BME280;40715;55.752;37.884;2022-07-23T07:31:25;99054.38;;;69.02;1.88
54816;BME280;40715;55.752;37.884;2022-07-23T07:33:52;99051.47;;;69.71;1.69
54816;BME280;40715;55.752;37.884;2022-07-23T07:36:19;99060.94;;;69.88;2.29
54816;BME280;40715;55.752;37.884;2022-07-23T07:38:46;99034.53;;;69.57;2.15
54816;BME280;40715;55.752;37.884;2022-07-23T07:41:13;99045.44;;;69.66;1.68
54816;BME280;40715;55.752;37.884;2022-07-23T07:43:40;99046.59;;;69.52;2.03
54816;BME280;40715;55.752;37.884;2022-07-23T07:46:07;99042.53;;;69.16;2.13
54816;BME280;40715;55.752;37.884;2022-07-23T07:48:37;99026.75;;;68.88;1.53
54816;BME280;40715;55.752;37.884;2022-07-23T07:51:05;99047.09;;;68.97;1.57
54816;BME280;40715;55.752;37.884;2022-07-23T07:53:34;99040.94;;;69.15;1.87
54816;BME280;40715;55.752;37.884;2022-07-23T07:56:01;99045.63;;;69.42;1.19
54816;BME280;40715;55.752;37.884;2022-07-23T07:58:28;99043.69;;;70.01;1.03
54816;BME280;40715;55.752;37.884;2022-07-23T08:00:55;99045.56;;;70.67;1.42
54816;BME280;40715;55.752;37.884;2022-07-23T08:03:22;99050.44;;;71.08;0.59
54816;BME280;40715;55.752;37.884;2022-07-23T08:05:49;99036.41;;;70.26;1.10
54816;BME280;40715;55.752;37.884;2022-07-23T08:08:16;99018.41;;;65.77;2.56
54816;BME280;40715;55.752;37.884;2022-07-23T08:10:44;99004.97;;;62.29;3.77
54816;BME280;40715;55.752;37.884;2022-07-23T08:13:18;98993.91;;;60.25;4.93
54816;BME280;40715;55.752;37.884;2022-07-23T08:15:45;99002.59;;;61.34;4.84
54816;BME280;40715;55.752;37.884;2022-07-23T08:18:12;99010.66;;;64.25;3.64
54816;BME280;40715;55.752;37.884;2022-07-23T08:20:48;99020.66;;;67.03;2.93
54816;BME280;40715;55.752;37.884;2022-07-23T08:23:15;99041.09;;;69.57;1.16
54816;BME280;40715;55.752;37.884;2022-07-23T08:25:46;99048.13;;;71.29;1.50
54816;BME280;40715;55.752;37.884;2022-07-23T08:28:14;99021.88;;;68.25;1.70
54816;BME280;40715;55.752;37.884;2022-07-23T08:30:43;98991.94;;;63.56;2.98
54816;BME280;40715;55.752;37.884;2022-07-23T08:33:12;98980.81;;;59.01;5.11
54816;BME280;40715;55.752;37.884;2022-07-23T08:35:46;98972.06;;;54.93;7.06
54816;BME280;40715;55.752;37.884;2022-07-23T08:38:16;98971.75;;;51.65;8.71
54816;BME280;40715;55.752;37.884;2022-07-23T08:40:48;98970.25;;;48.96;10.22
54816;BME280;40715;55.752;37.884;2022-07-23T08:43:21;98963.44;;;48.83;10.78
54816;BME280;40715;55.752;37.884;2022-07-23T08:45:51;98978.97;;;53.81;8.58
54816;BME280;40715;55.752;37.884;2022-07-23T08:48:20;98980.59;;;59.10;6.06
54816;BME280;40715;55.752;37.884;2022-07-23T08:51:07;99003.34;;;63.63;4.33
54816;BME280;40715;55.752;37.884;2022-07-23T08:53:57;99025.72;;;67.19;2.80
54816;BME280;40715;55.752;37.884;2022-07-23T08:56:24;99016.78;;;69.59;1.06
54816;BME280;40715;55.752;37.884;2022-07-23T08:58:54;99021.66;;;71.44;0.16
54816;BME280;40715;55.752;37.884;2022-07-23T09:01:21;99025.91;;;72.22;0.76
54816;BME280;40715;55.752;37.884;2022-07-23T09:03:48;99019.81;;;72.07;1.15
54816;BME280;40715;55.752;37.884;2022-07-23T09:06:15;99014.13;;;72.70;0.00
54816;BME280;40715;55.752;37.884;2022-07-23T09:08:44;99015.53;;;72.87;0.00
54816;BME280;40715;55.752;37.884;2022-07-23T09:11:15;99008.44;;;72.88;0.26
54816;BME280;40715;55.752;37.884;2022-07-23T09:13:52;99013.78;;;72.99;0.00
54816;BME280;40715;55.752;37.884;2022-07-23T09:16:25;99012.50;;;73.59;0.00
54816;BME280;40715;55.752;37.884;2022-07-23T09:18:56;99012.06;;;73.89;0.00
54816;BME280;40715;55.752;37.884;2022-07-23T09:21:34;99012.56;;;74.67;0.00
54816;BME280;40715;55.752;37.884;2022-07-23T09:24:07;98983.56;;;70.29;0.17
54816;BME280;40715;55.752;37.884;2022-07-23T09:26:37;98967.03;;;66.93;1.40
54816;BME280;40715;55.752;37.884;2022-07-23T09:29:26;98978.16;;;69.06;0.98
54816;BME280;40715;55.752;37.884;2022-07-23T09:34:31;98997.69;;;73.67;0.00
54816;BME280;40715;55.752;37.884;2022-07-23T09:37:13;98999.50;;;74.62;0.00
54816;BME280;40715;55.752;37.884;2022-07-23T09:39:43;98975.56;;;69.91;0.93
54816;BME280;40715;55.752;37.884;2022-07-23T09:44:49;98939.78;;;59.41;4.22
54816;BME280;40715;55.752;37.884;2022-07-23T09:47:17;98931.00;;;55.88;5.84
54816;BME280;40715;55.752;37.884;2022-07-23T09:50:04;98942.34;;;53.43;7.00
54816;BME280;40715;55.752;37.884;2022-07-23T09:52:35;98940.38;;;53.26;7.50
54816;BME280;40715;55.752;37.884;2022-07-23T09:55:05;98935.75;;;53.69;7.32
54816;BME280;40715;55.752;37.884;2022-07-23T09:57:32;98942.13;;;55.01;6.67
54816;BME280;40715;55.752;37.884;2022-07-23T10:00:07;98944.88;;;57.47;5.64
54816;BME280;40715;55.752;37.884;2022-07-23T10:02:36;98948.72;;;58.57;5.28
54816;BME280;40715;55.752;37.884;2022-07-23T10:05:04;98934.47;;;56.22;5.91
54816;BME280;40715;55.752;37.884;2022-07-23T10:07:33;98924.75;;;52.72;7.27
54816;BME280;40715;55.752;37.884;2022-07-23T10:10:03;98920.78;;;49.85;8.88
54816;BME280;40715;55.752;37.884;2022-07-23T10:12:31;98925.66;;;47.85;9.76
54816;BME280;40715;55.752;37.884;2022-07-23T10:15:17;98909.75;;;46.13;11.29
54816;BME280;40715;55.752;37.884;2022-07-23T10:17:44;98913.66;;;45.06;11.86
54816;BME280;40715;55.752;37.884;2022-07-23T10:20:11;98920.63;;;43.99;12.75
54816;BME280;40715;55.752;37.884;2022-07-23T10:26:29;98908.44;;;42.05;14.26
54816;BME280;40715;55.752;37.884;2022-07-23T10:29:47;98901.91;;;40.99;15.31
54816;BME280;40715;55.752;37.884;2022-07-23T10:35:07;98897.63;;;39.40;16.99
54816;BME280;40715;55.752;37.884;2022-07-23T10:37:41;98907.78;;;39.04;17.51
54816;BME280;40715;55.752;37.884;2022-07-23T10:40:18;98905.00;;;38.92;17.72
54816;BME280;40715;55.752;37.884;2022-07-23T10:42:49;98904.66;;;38.89;17.84
54816;BME280;40715;55.752;37.884;2022-07-23T10:45:34;98892.75;;;38.76;18.06
54816;BME280;40715;55.752;37.884;2022-07-23T10:48:21;98896.75;;;38.50;18.54
54816;BME280;40715;55.752;37.884;2022-07-23T10:51:12;98891.69;;;38.16;18.81
54816;BME280;40715;55.752;37.884;2022-07-23T10:56:16;98865.13;;;37.36;17.90
54816;BME280;40715;55.752;37.884;2022-07-23T10:58:49;98865.38;;;37.09;19.10
54816;BME280;40715;55.752;37.884;2022-07-23T11:01:36;98878.44;;;36.89;19.54
54816;BME280;40715;55.752;37.884;2022-07-23T11:04:05;98874.34;;;36.66;19.81
54816;BME280;40715;55.752;37.884;2022-07-23T11:09:44;98865.28;;;36.27;20.46
54816;BME280;40715;55.752;37.884;2022-07-23T11:15:09;98860.56;;;36.09;20.14
54816;BME280;40715;55.752;37.884;2022-07-23T11:25:10;98864.31;;;35.56;21.81
54816;BME280;40715;55.752;37.884;2022-07-23T11:30:07;98865.34;;;35.62;22.06
54816;BME280;40715;55.752;37.884;2022-07-23T11:32:40;98864.16;;;35.37;21.85
54816;BME280;40715;55.752;37.884;2022-07-23T11:35:26;98868.59;;;34.98;21.92
54816;BME280;40715;55.752;37.884;2022-07-23T11:38:03;98863.94;;;34.65;22.34
54816;BME280;40715;55.752;37.884;2022-07-23T11:40:30;98865.41;;;34.54;21.49
54816;BME280;40715;55.752;37.884;2022-07-23T11:42:58;98864.94;;;34.37;21.46
54816;BME280;40715;55.752;37.884;2022-07-23T11:45:33;98860.84;;;34.13;22.37
54816;BME280;40715;55.752;37.884;2022-07-23T11:48:03;98863.22;;;34.16;22.92
54816;BME280;40715;55.752;37.884;2022-07-23T11:50:31;98857.31;;;34.19;23.01
54816;BME280;40715;55.752;37.884;2022-07-23T11:52:58;98867.03;;;34.29;22.83
54816;BME280;40715;55.752;37.884;2022-07-23T11:55:25;98852.72;;;34.33;22.91
54816;BME280;40715;55.752;37.884;2022-07-23T11:57:55;98851.28;;;34.44;22.85
54816;BME280;40715;55.752;37.884;2022-07-23T12:00:24;98863.94;;;34.45;22.94
54816;BME280;40715;55.752;37.884;2022-07-23T12:02:55;98864.53;;;34.47;22.75
54816;BME280;40715;55.752;37.884;2022-07-23T12:05:25;98860.78;;;34.55;22.89
54816;BME280;40715;55.752;37.884;2022-07-23T12:07:54;98856.59;;;34.59;22.87
54816;BME280;40715;55.752;37.884;2022-07-23T12:10:27;98850.66;;;34.49;22.45
54816;BME280;40715;55.752;37.884;2022-07-23T12:12:57;98856.34;;;34.34;22.91
54816;BME280;40715;55.752;37.884;2022-07-23T12:15:27;98846.19;;;34.21;23.02
54816;BME280;40715;55.752;37.884;2022-07-23T12:17:58;98837.56;;;34.24;23.40
54816;BME280;40715;55.752;37.884;2022-07-23T12:20:28;98840.34;;;34.31;23.32
54816;BME280;40715;55.752;37.884;2022-07-23T12:22:57;98834.66;;;34.39;23.43
54816;BME280;40715;55.752;37.884;2022-07-23T12:25:30;98838.25;;;34.39;23.74
54816;BME280;40715;55.752;37.884;2022-07-23T12:30:30;98828.09;;;34.20;23.80
54816;BME280;40715;55.752;37.884;2022-07-23T12:33:00;98830.94;;;33.92;23.98
54816;BME280;40715;55.752;37.884;2022-07-23T12:35:36;98830.44;;;33.68;24.01
54816;BME280;40715;55.752;37.884;2022-07-23T12:38:05;98833.72;;;33.57;23.45
54816;BME280;40715;55.752;37.884;2022-07-23T12:40:36;98829.63;;;33.39;23.75
54816;BME280;40715;55.752;37.884;2022-07-23T12:46:19;98812.16;;;33.33;23.81
54816;BME280;40715;55.752;37.884;2022-07-23T12:51:27;98819.06;;;33.29;24.31
54816;BME280;40715;55.752;37.884;2022-07-23T12:54:04;98817.06;;;33.16;24.77
54816;BME280;40715;55.752;37.884;2022-07-23T12:56:44;98813.91;;;33.13;24.75
54816;BME280;40715;55.752;37.884;2022-07-23T12:59:14;98815.16;;;33.10;25.13
54816;BME280;40715;55.752;37.884;2022-07-23T13:01:46;98811.94;;;33.00;25.41
54816;BME280;40715;55.752;37.884;2022-07-23T13:04:21;98817.81;;;32.97;25.17
54816;BME280;40715;55.752;37.884;2022-07-23T13:06:57;98807.94;;;32.96;25.63
54816;BME280;40715;55.752;37.884;2022-07-23T13:09:26;98807.09;;;32.95;25.30
54816;BME280;40715;55.752;37.884;2022-07-23T13:11:59;98811.25;;;32.91;25.63
54816;BME280;40715;55.752;37.884;2022-07-23T13:14:27;98812.75;;;32.94;25.75
54816;BME280;40715;55.752;37.884;2022-07-23T13:16:55;98799.94;;;32.94;25.42
54816;BME280;40715;55.752;37.884;2022-07-23T13:19:23;98812.94;;;32.92;25.63
54816;BME280;40715;55.752;37.884;2022-07-23T13:21:50;98808.53;;;32.91;25.65
54816;BME280;40715;55.752;37.884;2022-07-23T13:24:17;98800.91;;;32.80;25.65
54816;BME280;40715;55.752;37.884;2022-07-23T13:26:44;98802.59;;;32.81;25.40
54816;BME280;40715;55.752;37.884;2022-07-23T13:29:13;98797.50;;;32.78;25.34
54816;BME280;40715;55.752;37.884;2022-07-23T13:31:43;98795.66;;;32.78;25.64
54816;BME280;40715;55.752;37.884;2022-07-23T13:34:10;98805.69;;;32.78;25.47
54816;BME280;40715;55.752;37.884;2022-07-23T13:36:37;98797.69;;;32.69;25.99
54816;BME280;40715;55.752;37.884;2022-07-23T13:39:04;98797.47;;;32.71;25.85
54816;BME280;40715;55.752;37.884;2022-07-23T13:41:32;98795.25;;;32.81;25.90